Time;durP1;ratioP1;P1;durP2;ratioP2;P2;SDS_P1;SDS_P2;PMS_P1;PMS_P2;Temp;Humidity;BMP_temperature;BMP_pressure;BME280_temperature;BME280_humidity;BME280_pressure;Samples;Min_cycle;Max_cycle;Signal;HPM_P1;HPM_P2
2023/09/08 00:01:43;;;;;;;9.93;8.10;;;;;;;18.16;92.55;98373.72;4138624;28;20734;-88
2023/09/08 00:03:46;;;;;;;9.37;7.53;;;;;;;18.12;92.60;98372.31;4133260;28;20648;-87
2023/09/08 00:05:49;;;;;;;9.30;7.90;;;;;;;18.10;92.22;98365.50;4122381;28;20688;-88
2023/09/08 00:07:53;;;;;;;8.43;7.30;;;;;;;18.06;92.45;98364.97;4125051;28;20660;-87
2023/09/08 00:09:55;;;;;;;10.10;7.63;;;;;;;18.03;92.66;98362.59;4125229;28;20630;-88
2023/09/08 00:11:58;;;;;;;9.30;7.43;;;;;;;18.01;92.32;98361.06;4126191;28;20650;-88
2023/09/08 00:14:03;;;;;;;8.93;7.33;;;;;;;17.97;93.41;98359.72;4113878;28;20646;-88
2023/09/08 00:16:09;;;;;;;9.83;7.10;;;;;;;17.97;92.96;98365.00;4113171;28;20616;-88
2023/09/08 00:18:14;;;;;;;10.50;7.40;;;;;;;17.94;92.82;98360.81;4115919;28;20637;-88
2023/09/08 00:20:18;;;;;;;8.93;7.83;;;;;;;17.94;92.88;98355.56;4124455;28;20633;-87
2023/09/08 00:22:21;;;;;;;10.60;8.40;;;;;;;17.96;93.07;98356.22;4115452;28;20673;-88
2023/09/08 00:24:24;;;;;;;9.63;8.27;;;;;;;17.95;93.08;98357.22;4103280;28;21022;-88
2023/09/08 00:26:27;;;;;;;10.30;8.20;;;;;;;17.95;92.74;98353.72;4131600;28;20718;-89
2023/09/08 00:28:31;;;;;;;9.30;7.80;;;;;;;17.92;92.49;98356.69;4119143;28;20694;-88
2023/09/08 00:30:33;;;;;;;9.90;7.63;;;;;;;17.88;92.81;98355.28;4123906;28;20643;-88
2023/09/08 00:32:37;;;;;;;9.13;7.73;;;;;;;17.85;93.14;98350.31;4124264;28;20636;-87
2023/09/08 00:34:42;;;;;;;12.93;8.20;;;;;;;17.83;93.17;98357.53;4121428;28;20634;-88
2023/09/08 00:36:45;;;;;;;9.20;7.70;;;;;;;17.81;92.48;98350.72;4121676;28;20639;-88
2023/09/08 00:38:48;;;;;;;10.40;8.10;;;;;;;17.77;92.69;98351.97;4122512;28;20670;-88
2023/09/08 00:40:51;;;;;;;11.30;7.53;;;;;;;17.77;92.57;98357.25;4112767;28;20651;-88
2023/09/08 00:42:54;;;;;;;8.50;7.47;;;;;;;17.75;93.76;98353.94;4105898;28;21199;-88
2023/09/08 00:44:57;;;;;;;9.43;7.73;;;;;;;17.71;92.91;98353.41;4123175;28;20655;-88
2023/09/08 00:47:00;;;;;;;9.40;7.50;;;;;;;17.68;92.58;98344.91;4120462;28;20666;-88
2023/09/08 00:49:04;;;;;;;9.80;7.50;;;;;;;17.67;92.86;98346.72;4109174;28;20694;-88
2023/09/08 00:51:09;;;;;;;11.67;7.37;;;;;;;17.64;93.83;98351.47;4114784;28;20678;-88
2023/09/08 00:53:11;;;;;;;9.57;8.03;;;;;;;17.64;93.83;98351.47;4115306;28;20677;-88
2023/09/08 00:55:15;;;;;;;9.33;7.73;;;;;;;17.62;93.21;98351.63;4121715;28;21288;-88
2023/09/08 00:57:18;;;;;;;8.53;7.63;;;;;;;17.61;93.00;98354.38;4104797;28;20693;-88
2023/09/08 00:59:22;;;;;;;8.97;7.40;;;;;;;17.59;93.05;98349.25;4108027;28;20647;-88
2023/09/08 01:01:25;;;;;;;9.63;7.33;;;;;;;17.57;93.88;98360.91;4116640;28;20722;-88
2023/09/08 01:03:28;;;;;;;9.23;7.60;;;;;;;17.54;93.09;98351.47;4115058;28;21293;-88
2023/09/08 01:05:31;;;;;;;10.27;8.33;;;;;;;17.51;93.73;98351.78;4118181;28;20681;-88
2023/09/08 01:07:36;;;;;;;9.10;7.63;;;;;;;17.49;93.17;98353.69;4119322;28;20705;-88
2023/09/08 01:09:39;;;;;;;12.47;7.47;;;;;;;17.51;94.02;98354.41;4117489;28;20642;-88
2023/09/08 01:11:43;;;;;;;8.80;7.40;;;;;;;17.50;93.86;98358.00;4114280;28;20638;-88
2023/09/08 01:13:45;;;;;;;8.97;7.60;;;;;;;17.49;93.26;98363.44;4121065;28;20645;-88
2023/09/08 01:15:49;;;;;;;9.60;7.90;;;;;;;17.45;93.59;98363.84;4122965;28;20731;-88
2023/09/08 01:17:51;;;;;;;9.90;7.53;;;;;;;17.40;94.00;98358.16;4122165;28;20648;-88
2023/09/08 01:19:56;;;;;;;9.23;8.07;;;;;;;17.35;93.20;98353.31;4106011;28;21246;-88
2023/09/08 01:22:22;;;;;;;9.50;7.07;;;;;;;17.33;93.98;98359.69;4120264;28;21201;-88
2023/09/08 01:24:56;;;;;;;7.90;6.60;;;;;;;17.31;93.75;98361.63;4102325;28;21317;-88
2023/09/08 01:27:01;;;;;;;9.87;7.23;;;;;;;17.27;93.83;98361.06;4113026;28;20637;-87
2023/09/08 01:29:06;;;;;;;9.17;7.63;;;;;;;17.26;93.63;98359.41;4118404;28;21083;-88
2023/09/08 01:31:09;;;;;;;8.90;7.50;;;;;;;17.24;93.04;98361.34;4105200;28;20741;-88
2023/09/08 01:33:12;;;;;;;8.40;7.33;;;;;;;17.26;94.53;98361.19;4109139;28;20638;-88
2023/09/08 01:35:15;;;;;;;9.53;8.00;;;;;;;17.24;94.86;98363.16;4139901;28;21272;-88
2023/09/08 01:37:17;;;;;;;8.33;7.43;;;;;;;17.25;94.43;98364.84;4119279;28;20634;-89
2023/09/08 01:39:20;;;;;;;8.33;7.27;;;;;;;17.23;93.83;98364.97;4123055;28;20705;-87
2023/09/08 01:41:24;;;;;;;8.67;7.43;;;;;;;17.20;93.61;98367.88;4125395;28;20692;-87
2023/09/08 01:43:28;;;;;;;8.80;7.50;;;;;;;17.19;93.51;98360.09;4109614;28;20641;-87
2023/09/08 01:45:30;;;;;;;9.27;7.60;;;;;;;17.16;95.14;98358.53;4109561;28;20744;-87
2023/09/08 01:47:34;;;;;;;8.53;7.60;;;;;;;17.16;95.06;98358.53;4106777;28;20646;-87
2023/09/08 01:49:38;;;;;;;9.10;8.20;;;;;;;17.13;93.67;98344.81;4119281;28;20775;-87
2023/09/08 01:51:41;;;;;;;13.47;7.60;;;;;;;17.13;94.33;98350.91;4124287;28;20639;-87
2023/09/08 01:53:44;;;;;;;9.60;8.10;;;;;;;17.13;93.91;98350.09;4102312;28;20641;-86
2023/09/08 01:55:47;;;;;;;10.10;8.17;;;;;;;17.12;93.92;98351.91;4124967;28;20636;-87
2023/09/08 01:57:50;;;;;;;9.60;8.23;;;;;;;17.10;94.04;98338.00;4122680;28;20641;-87
2023/09/08 01:59:55;;;;;;;10.00;8.20;;;;;;;17.09;93.40;98344.28;4117345;28;20633;-87
2023/09/08 02:01:58;;;;;;;9.17;7.57;;;;;;;17.12;93.93;98351.03;4109512;28;20637;-86
2023/09/08 02:04:01;;;;;;;8.87;7.47;;;;;;;17.10;94.19;98345.91;4104842;28;20688;-87
2023/09/08 02:06:05;;;;;;;14.57;8.20;;;;;;;17.08;93.79;98344.41;4127256;28;20695;-87
2023/09/08 02:08:08;;;;;;;9.40;8.40;;;;;;;17.06;95.27;98347.19;4120965;28;21227;-87
2023/09/08 02:10:11;;;;;;;8.63;7.53;;;;;;;17.05;94.62;98340.22;4135568;28;20632;-87
2023/09/08 02:12:14;;;;;;;8.97;7.90;;;;;;;17.03;94.59;98341.34;4119877;28;21340;-86
2023/09/08 02:14:17;;;;;;;11.37;8.03;;;;;;;17.02;94.48;98343.16;4112544;28;20689;-86
2023/09/08 02:16:23;;;;;;;9.80;8.07;;;;;;;17.02;95.55;98348.41;4120168;28;20684;-87
2023/09/08 02:18:28;;;;;;;10.80;8.10;;;;;;;17.03;94.27;98346.59;4134929;28;20640;-87
2023/09/08 02:20:31;;;;;;;8.27;7.30;;;;;;;17.02;94.57;98340.50;4119745;28;20669;-87
2023/09/08 02:22:34;;;;;;;9.87;7.90;;;;;;;17.00;94.77;98341.59;4111097;28;20970;-87
2023/09/08 02:24:38;;;;;;;9.57;8.10;;;;;;;16.98;94.00;98343.56;4133701;28;21064;-87
2023/09/08 02:26:42;;;;;;;11.00;8.57;;;;;;;16.98;93.78;98343.56;4105640;28;20665;-87
2023/09/08 02:28:45;;;;;;;9.27;8.27;;;;;;;16.97;95.61;98341.88;4106074;28;21357;-87
2023/09/08 02:30:49;;;;;;;8.77;7.87;;;;;;;16.96;94.73;98339.38;4122070;28;20638;-87
2023/09/08 02:32:52;;;;;;;9.50;7.90;;;;;;;16.93;95.90;98335.25;4127841;28;20641;-87
2023/09/08 02:34:55;;;;;;;8.13;7.30;;;;;;;16.93;94.01;98342.28;4117996;28;20690;-87
2023/09/08 02:36:59;;;;;;;8.43;7.47;;;;;;;16.90;94.43;98332.03;4109188;28;21272;-87
2023/09/08 02:39:02;;;;;;;8.90;7.93;;;;;;;16.88;94.47;98334.81;4122196;28;21045;-86
2023/09/08 02:41:05;;;;;;;10.17;8.40;;;;;;;16.89;96.00;98336.47;4111295;28;20637;-87
2023/09/08 02:43:09;;;;;;;13.20;8.17;;;;;;;16.90;94.56;98338.16;4125858;28;20708;-87
2023/09/08 02:45:12;;;;;;;8.80;7.90;;;;;;;16.87;94.39;98341.06;4123827;28;20636;-87
2023/09/08 02:47:15;;;;;;;10.10;8.93;;;;;;;16.87;94.35;98341.06;4137975;28;20738;-87
2023/09/08 02:49:21;;;;;;;10.33;9.20;;;;;;;16.89;96.00;98340.94;4125539;28;21290;-87
2023/09/08 02:51:23;;;;;;;9.63;8.50;;;;;;;16.90;94.25;98343.41;4120720;28;21347;-88
2023/09/08 02:53:28;;;;;;;9.80;8.70;;;;;;;16.88;95.56;98337.44;4124361;28;20619;-88
2023/09/08 02:55:31;;;;;;;9.50;8.50;;;;;;;16.88;95.37;98339.25;4102456;28;20628;-88
2023/09/08 02:57:35;;;;;;;11.57;9.40;;;;;;;16.87;94.31;98340.22;4101893;28;20632;-87
2023/09/08 02:59:37;;;;;;;9.37;8.30;;;;;;;16.86;94.49;98339.38;4118395;28;20633;-88
2023/09/08 03:01:40;;;;;;;10.27;7.73;;;;;;;16.86;95.09;98342.03;4113506;28;20645;-87
2023/09/08 03:03:45;;;;;;;9.90;8.50;;;;;;;16.85;95.54;98339.53;4127060;28;20641;-88
2023/09/08 03:05:55;;;;;;;10.00;9.00;;;;;;;16.82;95.50;98345.88;4131461;28;20625;-87
2023/09/08 03:07:58;;;;;;;9.93;8.00;;;;;;;16.81;94.74;98346.03;4128209;28;20660;-87
2023/09/08 03:10:02;;;;;;;9.90;7.67;;;;;;;16.78;93.96;98336.59;4128913;28;20715;-88
2023/09/08 03:12:04;;;;;;;10.53;8.83;;;;;;;16.77;95.72;98342.84;4124850;28;20633;-88
2023/09/08 03:14:07;;;;;;;9.83;8.33;;;;;;;16.76;94.85;98340.34;4119434;28;20729;-87
2023/09/08 03:16:11;;;;;;;10.20;8.33;;;;;;;16.74;95.88;98343.09;4122244;28;20621;-88
2023/09/08 03:18:14;;;;;;;11.67;8.20;;;;;;;16.72;94.78;98342.41;4119818;28;20652;-88
2023/09/08 03:20:19;;;;;;;11.13;8.57;;;;;;;16.71;96.17;98342.56;4106788;28;20656;-88
2023/09/08 03:22:24;;;;;;;13.00;8.60;;;;;;;16.72;96.33;98345.06;4128446;28;20644;-88
2023/09/08 03:24:28;;;;;;;10.93;8.37;;;;;;;16.71;94.93;98342.56;4126036;28;21059;-88
2023/09/08 03:26:31;;;;;;;9.03;7.77;;;;;;;16.70;95.20;98336.47;4124711;28;20670;-88
2023/09/08 03:28:37;;;;;;;11.27;9.27;;;;;;;16.69;95.32;98337.44;4118585;28;20662;-88
2023/09/08 03:30:39;;;;;;;10.57;8.80;;;;;;;16.69;96.44;98339.25;4117360;28;20633;-88
2023/09/08 03:32:42;;;;;;;10.00;9.00;;;;;;;16.70;95.34;98338.25;4130762;28;20666;-88
2023/09/08 03:34:46;;;;;;;9.70;8.60;;;;;;;16.69;96.53;98340.06;4125329;28;20733;-87
2023/09/08 03:36:49;;;;;;;9.20;7.93;;;;;;;16.70;95.44;98338.25;4123029;28;20724;-88
2023/09/08 03:38:54;;;;;;;9.60;8.70;;;;;;;16.70;94.91;98332.97;4118341;28;20681;-87
2023/09/08 03:40:57;;;;;;;10.67;9.10;;;;;;;16.69;95.36;98334.78;4116392;28;20716;-87
2023/09/08 03:43:01;;;;;;;11.60;9.60;;;;;;;16.69;95.34;98334.78;4122590;28;20715;-88
2023/09/08 03:45:04;;;;;;;9.50;7.97;;;;;;;16.71;95.65;98338.09;4127148;28;20707;-88
2023/09/08 03:47:08;;;;;;;12.33;8.57;;;;;;;16.70;96.53;98331.19;4116810;28;20659;-88
2023/09/08 03:49:11;;;;;;;10.27;9.10;;;;;;;16.70;94.88;98339.09;4119229;28;20648;-88
2023/09/08 03:51:14;;;;;;;11.77;8.43;;;;;;;16.72;95.92;98339.78;4120264;28;20648;-88
2023/09/08 03:53:17;;;;;;;12.33;9.37;;;;;;;16.73;96.47;98340.59;4118512;28;20669;-88
2023/09/08 03:55:22;;;;;;;13.37;9.27;;;;;;;16.71;95.81;98343.38;4128624;28;20694;-88
2023/09/08 03:57:25;;;;;;;10.20;8.87;;;;;;;16.70;96.53;98340.88;4133166;28;20735;-88
2023/09/08 03:59:29;;;;;;;11.43;9.10;;;;;;;16.70;95.24;98338.25;4114513;28;21297;-88
2023/09/08 04:01:32;;;;;;;11.40;8.80;;;;;;;16.67;95.67;98343.78;4125674;28;20645;-87
2023/09/08 04:03:35;;;;;;;12.17;9.67;;;;;;;16.65;95.40;98338.66;4113180;28;21366;-87
2023/09/08 04:05:40;;;;;;;14.80;9.80;;;;;;;16.63;95.53;98340.59;4110509;28;21332;-87
2023/09/08 04:07:43;;;;;;;12.10;9.80;;;;;;;16.61;96.99;98337.28;4127459;28;20658;-87
2023/09/08 04:09:46;;;;;;;11.63;9.80;;;;;;;16.61;96.35;98345.19;4125379;28;20941;-86
2023/09/08 04:11:51;;;;;;;11.67;9.67;;;;;;;16.58;95.72;98342.81;4118327;28;20636;-86
2023/09/08 04:13:55;;;;;;;10.90;9.80;;;;;;;16.58;94.70;98348.09;4117990;28;20625;-87
2023/09/08 04:15:58;;;;;;;12.67;10.00;;;;;;;16.56;96.30;98344.72;4118715;28;20637;-87
2023/09/08 04:18:02;;;;;;;12.93;10.20;;;;;;;16.54;96.01;98346.69;4125045;28;20700;-87
2023/09/08 04:20:06;;;;;;;13.10;9.73;;;;;;;16.54;95.04;98354.56;4107770;28;20734;-86
2023/09/08 04:22:09;;;;;;;12.60;10.13;;;;;;;16.51;95.07;98346.94;4117456;28;20724;-86
2023/09/08 04:24:12;;;;;;;10.83;9.20;;;;;;;16.49;96.40;98347.22;4119177;28;20626;-86
2023/09/08 04:26:16;;;;;;;13.00;10.50;;;;;;;16.48;96.80;98350.81;4107617;28;20733;-86
2023/09/08 04:28:20;;;;;;;11.33;9.60;;;;;;;16.46;96.24;98350.13;4124141;28;20660;-86
2023/09/08 04:30:23;;;;;;;12.13;10.20;;;;;;;16.45;95.13;98348.44;4123015;28;20668;-86
2023/09/08 04:32:26;;;;;;;13.00;9.90;;;;;;;16.44;96.78;98355.53;4120412;28;20640;-87
2023/09/08 04:34:30;;;;;;;14.10;9.87;;;;;;;16.45;96.04;98351.94;4114954;28;20648;-87
2023/09/08 04:36:33;;;;;;;11.30;10.13;;;;;;;16.45;96.38;98351.94;4118380;28;20639;-86
2023/09/08 04:38:36;;;;;;;12.07;10.77;;;;;;;16.44;94.94;98354.69;4123282;28;21269;-86
2023/09/08 04:40:41;;;;;;;14.53;11.30;;;;;;;16.44;97.28;98362.59;4123022;28;21195;-87
2023/09/08 04:42:45;;;;;;;12.20;10.47;;;;;;;16.43;95.52;98366.19;4115613;28;20642;-86
2023/09/08 04:44:50;;;;;;;12.07;10.03;;;;;;;16.42;97.10;98364.50;4107289;28;20996;-87
2023/09/08 04:46:53;;;;;;;13.50;9.50;;;;;;;16.41;95.47;98365.50;4118044;28;20632;-86
2023/09/08 04:49:00;;;;;;;11.00;9.90;;;;;;;16.41;96.39;98362.84;4115424;28;21210;-87
2023/09/08 04:51:03;;;;;;;10.87;9.07;;;;;;;16.40;96.54;98369.91;4118734;28;20728;-87
2023/09/08 04:53:06;;;;;;;13.50;10.70;;;;;;;16.39;96.60;98363.00;4129917;28;20631;-87
2023/09/08 04:55:10;;;;;;;13.20;10.63;;;;;;;16.39;96.48;98364.78;4117387;28;20640;-87
2023/09/08 04:57:13;;;;;;;13.17;10.50;;;;;;;16.38;95.81;98373.66;4111865;28;20677;-86
2023/09/08 04:59:26;;;;;;;13.10;10.53;;;;;;;16.37;96.53;98375.44;4110197;28;20740;-86
2023/09/08 05:01:32;;;;;;;12.10;10.40;;;;;;;16.37;95.63;98372.81;4122621;28;20643;-86
2023/09/08 05:03:37;;;;;;;11.10;9.90;;;;;;;16.37;96.65;98378.06;4104743;28;20770;-86
2023/09/08 05:05:41;;;;;;;11.17;10.00;;;;;;;16.37;96.87;98374.63;4108911;28;21122;-86
2023/09/08 05:07:46;;;;;;;12.10;10.47;;;;;;;16.41;96.42;98370.75;4111522;28;21271;-86
2023/09/08 05:09:49;;;;;;;11.80;10.57;;;;;;;16.47;96.46;98375.50;4115629;28;20905;-86
2023/09/08 05:11:52;;;;;;;15.40;9.93;;;;;;;16.58;95.85;98376.19;4107973;28;20669;-86
2023/09/08 05:13:57;;;;;;;10.67;9.57;;;;;;;16.72;96.25;98381.94;4134014;28;21502;-86
2023/09/08 05:16:00;;;;;;;11.80;9.93;;;;;;;16.85;95.30;98387.78;4125758;28;20696;-86
2023/09/08 05:18:08;;;;;;;11.43;9.90;;;;;;;16.97;95.61;98388.50;4111041;28;20636;-86
2023/09/08 05:20:11;;;;;;;14.07;10.40;;;;;;;17.10;95.11;98388.09;4117002;28;20629;-86
2023/09/08 05:22:14;;;;;;;12.00;9.97;;;;;;;17.23;94.46;98391.34;4107999;28;20650;-86
2023/09/08 05:24:17;;;;;;;13.47;10.33;;;;;;;17.38;95.15;98395.22;4106872;28;20642;-86
2023/09/08 05:26:21;;;;;;;12.70;11.03;;;;;;;17.51;94.66;98395.75;4112768;28;20636;-86
2023/09/08 05:28:24;;;;;;;12.33;9.70;;;;;;;17.65;93.57;98400.59;4109437;28;20680;-86
2023/09/08 05:30:27;;;;;;;11.53;10.00;;;;;;;17.76;93.05;98405.75;4120107;28;20672;-87
2023/09/08 05:32:31;;;;;;;11.23;9.97;;;;;;;17.88;92.70;98397.53;4120531;28;20661;-86
2023/09/08 05:34:36;;;;;;;12.30;10.37;;;;;;;17.99;92.53;98408.75;4124886;28;20695;-86
2023/09/08 05:36:40;;;;;;;13.50;10.60;;;;;;;18.10;91.38;98403.31;4118381;28;20646;-86
2023/09/08 05:38:44;;;;;;;13.10;10.23;;;;;;;18.21;91.51;98404.97;4115790;28;20681;-86
2023/09/08 05:40:48;;;;;;;13.00;10.33;;;;;;;18.31;91.12;98403.13;4126512;28;20634;-86
2023/09/08 05:42:51;;;;;;;14.63;9.50;;;;;;;18.42;91.00;98407.25;4125277;28;20652;-87
2023/09/08 05:44:54;;;;;;;12.47;9.83;;;;;;;18.57;90.73;98419.00;4124298;28;20735;-87
2023/09/08 05:46:58;;;;;;;12.10;10.27;;;;;;;18.73;90.65;98413.91;4126516;28;20692;-86
2023/09/08 05:49:01;;;;;;;11.40;10.10;;;;;;;18.87;89.91;98423.16;4107391;28;20667;-86
2023/09/08 05:51:07;;;;;;;12.63;10.50;;;;;;;18.98;89.89;98410.59;4127679;28;21255;-87
2023/09/08 05:53:12;;;;;;;10.70;9.20;;;;;;;19.11;89.59;98419.88;4111016;28;20725;-86
2023/09/08 05:55:19;;;;;;;12.40;10.63;;;;;;;19.24;89.92;98420.31;4126891;28;20682;-87
2023/09/08 05:57:22;;;;;;;11.63;10.30;;;;;;;19.38;89.54;98418.00;4122556;28;21029;-87
2023/09/08 05:59:25;;;;;;;12.57;9.53;;;;;;;19.51;88.43;98418.44;4112812;28;20635;-87
2023/09/08 06:01:29;;;;;;;12.80;10.70;;;;;;;19.61;88.10;98419.19;4124954;28;20662;-87
2023/09/08 06:03:32;;;;;;;14.10;9.60;;;;;;;19.73;85.96;98411.84;4125433;28;20650;-87
2023/09/08 06:05:35;;;;;;;14.70;10.73;;;;;;;19.84;85.96;98420.38;4123094;28;20700;-87
2023/09/08 06:07:42;;;;;;;11.47;9.77;;;;;;;19.95;86.98;98407.75;4131541;28;20659;-87
2023/09/08 06:10:04;;;;;;;11.20;9.70;;;;;;;20.11;86.97;98414.97;4125578;28;20693;-87
2023/09/08 06:12:07;;;;;;;12.67;9.80;;;;;;;20.21;84.69;98419.19;4137800;28;20650;-87
2023/09/08 06:14:11;;;;;;;11.60;10.40;;;;;;;20.32;83.13;98415.44;4122313;28;20635;-87
2023/09/08 06:16:16;;;;;;;13.43;10.00;;;;;;;20.43;82.81;98416.00;4114318;28;20628;-87
2023/09/08 06:18:19;;;;;;;12.73;9.80;;;;;;;20.51;82.96;98414.22;4111723;28;20637;-87
2023/09/08 06:20:22;;;;;;;12.93;9.93;;;;;;;20.56;82.31;98411.94;4109865;28;20655;-87
2023/09/08 06:22:25;;;;;;;12.50;9.53;;;;;;;20.71;83.64;98412.22;4104405;28;20620;-88
2023/09/08 06:24:29;;;;;;;11.73;8.90;;;;;;;20.85;82.91;98410.63;4124986;28;20655;-88
2023/09/08 06:26:33;;;;;;;12.00;8.83;;;;;;;20.99;83.30;98414.47;4126992;28;20641;-89
2023/09/08 06:28:35;;;;;;;10.47;9.37;;;;;;;21.09;82.40;98415.16;4120730;28;20655;-87
2023/09/08 06:30:41;;;;;;;10.70;9.57;;;;;;;21.21;83.36;98420.00;4108286;28;20637;-88
2023/09/08 06:32:45;;;;;;;9.97;8.90;;;;;;;21.40;83.57;98417.88;4126397;28;20640;-88
2023/09/08 06:34:49;;;;;;;12.57;9.57;;;;;;;21.53;81.99;98412.97;4110100;28;20637;-88
2023/09/08 06:36:52;;;;;;;11.13;9.60;;;;;;;21.69;81.70;98417.44;4126682;28;20735;-88
2023/09/08 06:38:55;;;;;;;12.60;9.00;;;;;;;21.80;81.81;98415.31;4124036;28;21222;-88
2023/09/08 06:41:00;;;;;;;11.30;9.50;;;;;;;21.84;79.66;98417.44;4116183;28;20647;-88
2023/09/08 06:43:04;;;;;;;10.73;9.63;;;;;;;21.96;80.73;98413.44;4124382;28;20649;-88
2023/09/08 06:45:21;;;;;;;12.17;10.37;;;;;;;22.09;79.70;98424.41;4137167;28;20639;-88
2023/09/08 06:47:24;;;;;;;11.53;9.40;;;;;;;22.28;81.61;98424.06;4134065;28;20640;-89
2023/09/08 06:49:28;;;;;;;12.40;10.30;;;;;;;22.39;79.51;98432.53;4124977;28;21006;-88
2023/09/08 06:51:30;;;;;;;13.97;9.33;;;;;;;22.55;82.37;98435.16;4108200;28;20650;-88
2023/09/08 06:53:33;;;;;;;11.27;10.07;;;;;;;22.69;82.26;98437.13;4110552;28;21263;-89
2023/09/08 06:55:37;;;;;;;12.70;9.73;;;;;;;22.75;78.52;98426.59;4118459;28;20631;-88
2023/09/08 06:57:40;;;;;;;10.30;9.30;;;;;;;22.85;79.10;98423.75;4111029;28;20713;-88
2023/09/08 06:59:43;;;;;;;11.10;9.97;;;;;;;22.95;79.47;98425.22;4121100;28;21093;-88
2023/09/08 07:01:47;;;;;;;11.33;9.63;;;;;;;23.08;78.19;98430.84;4118175;28;20698;-88
2023/09/08 07:03:50;;;;;;;11.37;9.60;;;;;;;23.18;77.88;98433.28;4100555;28;20649;-89
2023/09/08 07:05:54;;;;;;;12.77;9.43;;;;;;;23.24;77.52;98428.06;4112818;28;20741;-87
2023/09/08 07:07:58;;;;;;;11.93;10.10;;;;;;;23.37;77.53;98433.66;4137095;28;20741;-88
2023/09/08 07:10:03;;;;;;;11.60;9.70;;;;;;;23.55;78.26;98435.03;4124981;28;20655;-88
2023/09/08 07:12:07;;;;;;;11.40;10.07;;;;;;;23.71;81.61;98437.63;4111295;28;21196;-88
2023/09/08 07:14:13;;;;;;;10.63;9.57;;;;;;;23.88;79.27;98428.50;4131755;28;20674;-89
2023/09/08 07:16:15;;;;;;;10.73;9.60;;;;;;;24.04;78.16;98433.69;4121467;28;21090;-89
2023/09/08 07:18:18;;;;;;;12.00;10.43;;;;;;;24.15;75.88;98432.25;4115256;28;20642;-89
2023/09/08 07:20:22;;;;;;;10.73;9.63;;;;;;;24.30;76.08;98440.31;4130369;28;20635;-89
2023/09/08 07:22:24;;;;;;;13.50;9.70;;;;;;;24.42;77.39;98434.38;4130521;28;20657;-88
2023/09/08 07:24:28;;;;;;;12.10;8.70;;;;;;;24.49;74.14;98434.44;4111670;28;21237;-88
2023/09/08 07:26:31;;;;;;;8.87;7.97;;;;;;;24.58;73.57;98434.19;4108786;28;20631;-88
2023/09/08 07:28:34;;;;;;;10.67;9.30;;;;;;;24.67;74.43;98425.06;4117600;28;20658;-89
2023/09/08 07:30:41;;;;;;;10.07;8.90;;;;;;;24.75;74.08;98425.00;4102625;28;20656;-88
2023/09/08 07:32:45;;;;;;;9.30;8.40;;;;;;;24.84;74.06;98421.22;4132715;28;21115;-89
2023/09/08 07:34:54;;;;;;;11.23;9.13;;;;;;;25.01;74.43;98423.53;4133902;28;20659;-89
2023/09/08 07:36:58;;;;;;;8.77;7.93;;;;;;;25.13;74.37;98415.88;4117152;28;20633;-88
2023/09/08 07:39:01;;;;;;;9.37;8.37;;;;;;;25.23;73.04;98423.41;4133704;28;20636;-89
2023/09/08 07:41:05;;;;;;;8.97;8.07;;;;;;;25.29;71.40;98414.63;4117170;28;20784;-89
2023/09/08 07:43:08;;;;;;;8.87;7.97;;;;;;;25.40;74.17;98418.66;4132883;28;20643;-88
2023/09/08 07:45:11;;;;;;;9.03;8.13;;;;;;;25.58;74.74;98423.38;4104625;28;21285;-88
2023/09/08 07:47:16;;;;;;;8.13;7.33;;;;;;;25.68;74.63;98428.47;4124467;28;20653;-89
2023/09/08 07:49:20;;;;;;;15.20;8.43;;;;;;;25.78;71.92;98420.94;4119120;28;21222;-89
2023/09/08 07:51:23;;;;;;;9.00;8.10;;;;;;;25.85;71.61;98416.50;4118035;28;20634;-89
2023/09/08 07:53:26;;;;;;;8.30;7.50;;;;;;;25.94;71.22;98412.69;4119591;28;20641;-88
2023/09/08 07:55:29;;;;;;;8.53;7.73;;;;;;;26.00;72.55;98411.91;4102348;28;21301;-88
2023/09/08 07:57:32;;;;;;;8.97;8.07;;;;;;;26.20;71.62;98416.38;4106589;28;20620;-88
2023/09/08 07:59:36;;;;;;;8.27;7.40;;;;;;;26.29;70.29;98415.25;4116938;28;20623;-89
2023/09/08 08:01:40;;;;;;;8.97;8.07;;;;;;;26.41;70.69;98411.84;4119115;28;20751;-88
2023/09/08 08:03:44;;;;;;;8.43;7.63;;;;;;;26.53;70.26;98407.59;4116197;28;20651;-89
2023/09/08 08:05:48;;;;;;;9.97;8.30;;;;;;;26.63;71.05;98413.44;4121873;28;20638;-89
2023/09/08 08:07:51;;;;;;;8.73;7.83;;;;;;;26.75;70.25;98418.03;4109012;28;20666;-88
2023/09/08 08:09:54;;;;;;;8.43;7.50;;;;;;;26.79;69.64;98407.75;4117341;28;20659;-89
2023/09/08 08:11:57;;;;;;;8.57;7.17;;;;;;;26.80;69.53;98409.41;4136524;28;20639;-89
2023/09/08 08:14:00;;;;;;;8.37;7.47;;;;;;;26.85;69.26;98404.28;4112534;28;20638;-88
2023/09/08 08:16:04;;;;;;;10.17;8.17;;;;;;;27.00;69.25;98408.50;4104494;28;20641;-89
2023/09/08 08:18:09;;;;;;;11.40;8.50;;;;;;;27.02;68.04;98414.50;4116958;28;20644;-88
2023/09/08 08:20:17;;;;;;;8.10;7.40;;;;;;;27.09;70.90;98416.19;4120149;28;20636;-89
2023/09/08 08:22:21;;;;;;;7.90;7.03;;;;;;;27.17;68.45;98410.66;4124156;28;20707;-88
2023/09/08 08:24:24;;;;;;;8.97;8.07;;;;;;;27.18;68.73;98409.63;4124238;28;20635;-88
2023/09/08 08:26:32;;;;;;;7.73;6.57;;;;;;;27.31;69.60;98414.22;4104899;28;20628;-89
2023/09/08 08:28:35;;;;;;;7.70;7.00;;;;;;;27.34;67.25;98414.63;4121985;28;20673;-88
2023/09/08 08:30:39;;;;;;;7.90;7.20;;;;;;;27.32;69.15;98395.25;4109791;28;20744;-88
2023/09/08 08:32:42;;;;;;;8.70;7.90;;;;;;;27.45;68.50;98407.84;4119823;28;20623;-88
2023/09/08 08:34:46;;;;;;;9.17;7.57;;;;;;;27.62;69.67;98407.34;4117947;28;20744;-88
2023/09/08 08:36:50;;;;;;;7.70;7.00;;;;;;;27.75;71.44;98404.66;4116378;28;20673;-88
2023/09/08 08:38:53;;;;;;;8.73;7.83;;;;;;;27.75;67.49;98401.97;4117732;28;20651;-88
2023/09/08 08:41:03;;;;;;;10.33;8.70;;;;;;;27.72;68.53;98399.69;4136062;28;20631;-88
2023/09/08 08:43:06;;;;;;;9.73;7.60;;;;;;;27.78;68.78;98397.00;4124005;28;20628;-87
2023/09/08 08:45:10;;;;;;;8.07;7.10;;;;;;;27.86;68.07;98393.31;4119406;28;20630;-88
2023/09/08 08:47:15;;;;;;;7.60;6.20;;;;;;;27.83;67.00;98393.72;4120556;28;20629;-87
2023/09/08 08:49:19;;;;;;;8.40;7.53;;;;;;;27.78;66.45;98393.53;4117688;28;20632;-87
2023/09/08 08:51:24;;;;;;;8.97;7.30;;;;;;;27.71;66.43;98395.34;4117557;28;20721;-88
2023/09/08 08:53:28;;;;;;;8.23;7.50;;;;;;;27.75;67.54;98393.94;4121108;28;21157;-87
2023/09/08 08:55:32;;;;;;;8.80;8.00;;;;;;;27.78;67.39;98391.66;4133389;28;20645;-87
2023/09/08 08:57:37;;;;;;;7.90;7.20;;;;;;;27.88;68.73;98392.09;4120993;28;20643;-87
2023/09/08 08:59:41;;;;;;;7.90;7.20;;;;;;;28.04;69.66;98394.38;4109927;28;20635;-87
2023/09/08 09:01:44;;;;;;;8.30;7.50;;;;;;;28.18;69.32;98393.38;4116821;28;20755;-88
2023/09/08 09:03:49;;;;;;;8.30;7.50;;;;;;;28.25;70.22;98389.66;4117662;28;20663;-87
2023/09/08 09:05:53;;;;;;;7.53;6.73;;;;;;;28.29;67.95;98390.88;4104695;28;21128;-87
2023/09/08 09:07:59;;;;;;;8.40;7.53;;;;;;;28.35;67.09;98398.09;4108617;28;21203;-87
2023/09/08 09:10:04;;;;;;;7.37;6.70;;;;;;;28.40;67.18;98392.94;4116858;28;20656;-88
2023/09/08 09:12:07;;;;;;;8.53;7.63;;;;;;;28.41;67.75;98389.22;4110620;28;20632;-88
2023/09/08 09:14:11;;;;;;;7.87;7.17;;;;;;;28.34;65.91;98392.94;4130503;28;20639;-88
2023/09/08 09:16:14;;;;;;;8.20;7.40;;;;;;;28.40;69.24;98392.94;4109559;28;20662;-87
2023/09/08 09:18:17;;;;;;;7.90;7.10;;;;;;;28.48;68.25;98385.47;4106765;28;20767;-87
2023/09/08 09:20:21;;;;;;;8.17;7.37;;;;;;;28.53;65.09;98385.66;4115551;28;20634;-88
2023/09/08 09:22:37;;;;;;;8.97;7.50;;;;;;;28.60;69.37;98391.06;4123488;28;21268;-87
2023/09/08 09:24:43;;;;;;;7.30;6.60;;;;;;;28.63;65.97;98386.06;4121056;28;20632;-88
2023/09/08 09:26:52;;;;;;;8.10;7.30;;;;;;;28.61;68.24;98385.47;4120322;28;20665;-87
2023/09/08 09:28:57;;;;;;;9.03;7.00;;;;;;;28.69;69.04;98387.13;4120121;28;21179;-88
2023/09/08 09:31:00;;;;;;;8.03;7.23;;;;;;;28.79;67.41;98388.34;4117349;28;20662;-88
2023/09/08 09:33:07;;;;;;;8.13;7.20;;;;;;;28.91;67.59;98388.50;4120787;28;20627;-88
2023/09/08 09:35:10;;;;;;;7.97;7.17;;;;;;;28.98;67.28;98392.00;4118974;28;20625;-88
2023/09/08 09:37:14;;;;;;;7.70;6.97;;;;;;;29.01;67.28;98393.22;4116594;28;20639;-87
2023/09/08 09:39:21;;;;;;;7.07;6.37;;;;;;;29.02;66.57;98383.31;4117957;28;20730;-88